createdAt,value
2017-11-30T00:00:02.257Z,16.02
2017-11-30T00:01:04.750Z,18.08
2017-11-30T00:02:07.215Z,17.73
2017-11-30T00:03:09.761Z,17.60
2017-11-30T00:04:12.271Z,18.70
2017-11-30T00:05:14.784Z,17.62
2017-11-30T00:06:18.022Z,17.23
2017-11-30T00:07:21.259Z,18.20
2017-11-30T00:08:23.814Z,17.25
2017-11-30T00:09:26.437Z,17.75
2017-11-30T00:10:29.836Z,17.52
2017-11-30T00:11:32.361Z,18.23
2017-11-30T00:12:34.953Z,16.75
2017-11-30T00:13:37.532Z,18.67
2017-11-30T00:14:40.071Z,18.73
2017-11-30T00:15:42.629Z,17.73
2017-11-30T00:16:45.120Z,18.35
2017-11-30T00:17:48.348Z,17.70
2017-11-30T00:18:50.961Z,17.30
2017-11-30T00:19:53.428Z,16.98
2017-11-30T00:20:55.928Z,17.95
2017-11-30T00:21:58.405Z,16.90
2017-11-30T00:23:00.949Z,17.48
2017-11-30T00:24:03.555Z,17.83
2017-11-30T00:25:06.041Z,17.50
2017-11-30T00:26:09.296Z,16.60
2017-11-30T00:27:12.560Z,16.87
2017-11-30T00:28:15.075Z,18.25
2017-11-30T00:29:17.610Z,17.92
2017-11-30T00:30:20.088Z,16.60
2017-11-30T00:31:22.590Z,17.35
2017-11-30T00:32:25.096Z,18.55
2017-11-30T00:33:27.578Z,17.05
2017-11-30T00:34:30.963Z,17.50
2017-11-30T00:35:33.441Z,18.92
2017-11-30T00:36:36.273Z,17.83
2017-11-30T00:37:38.786Z,18.48
2017-11-30T00:38:42.580Z,18.23
2017-11-30T00:39:45.932Z,16.30
2017-11-30T00:40:48.433Z,17.27
2017-11-30T00:41:51.699Z,18.23
2017-11-30T00:43:06.036Z,17.95
2017-11-30T00:44:20.712Z,17.30
2017-11-30T00:45:23.160Z,17.23
2017-11-30T00:46:25.623Z,17.00
2017-11-30T00:47:28.867Z,17.05
2017-11-30T00:48:32.101Z,16.67
2017-11-30T00:49:34.661Z,17.48
2017-11-30T00:50:37.115Z,17.30
2017-11-30T00:51:39.583Z,17.85
2017-11-30T00:52:42.856Z,17.42
2017-11-30T00:53:45.339Z,18.08
2017-11-30T00:54:47.848Z,18.05
2017-11-30T00:55:50.317Z,18.10
2017-11-30T00:56:52.783Z,16.80
2017-11-30T00:59:04.269Z,16.67
2017-11-30T01:00:06.760Z,17.25
2017-11-30T01:01:09.996Z,17.52
2017-11-30T01:02:13.269Z,17.70
2017-11-30T01:03:15.748Z,16.50
2017-11-30T01:04:19.707Z,16.60
2017-11-30T01:05:22.983Z,17.62
2017-11-30T01:06:25.477Z,17.10
2017-11-30T01:07:28.038Z,18.37
2017-11-30T01:08:30.525Z,18.55
2017-11-30T01:09:33.100Z,17.95
2017-11-30T01:10:35.603Z,18.65
2017-11-30T01:11:38.861Z,18.20
2017-11-30T01:12:41.370Z,18.62
2017-11-30T01:13:43.856Z,17.58
2017-11-30T01:14:46.361Z,17.58
2017-11-30T01:15:48.875Z,18.40
2017-11-30T01:16:51.356Z,16.35
2017-11-30T01:17:54.628Z,17.10
2017-11-30T01:18:57.096Z,16.45
2017-11-30T01:19:59.693Z,17.30
2017-11-30T01:21:02.184Z,17.65
2017-11-30T01:22:05.699Z,18.52
2017-11-30T01:23:08.183Z,18.08
2017-11-30T01:24:10.667Z,18.08
2017-11-30T01:25:13.217Z,18.87
2017-11-30T01:26:16.461Z,18.20
2017-11-30T01:27:19.719Z,18.02
2017-11-30T01:28:22.212Z,17.15
2017-11-30T01:29:25.484Z,17.42
2017-11-30T01:30:27.968Z,18.37
2017-11-30T01:31:30.453Z,18.15
2017-11-30T01:32:32.923Z,17.98
2017-11-30T01:33:36.197Z,17.17
2017-11-30T01:34:38.749Z,19.00
2017-11-30T01:35:41.276Z,17.00
2017-11-30T01:36:43.773Z,18.62
2017-11-30T01:37:46.261Z,16.35
2017-11-30T01:38:49.545Z,17.40
2017-11-30T01:39:52.035Z,17.58
2017-11-30T01:40:55.264Z,17.62
2017-11-30T01:41:57.731Z,17.05
2017-11-30T01:43:00.982Z,16.90
2017-11-30T01:44:03.516Z,17.00
2017-11-30T01:45:06.047Z,16.35
2017-11-30T01:46:08.521Z,16.77
2017-11-30T01:47:11.715Z,16.48
2017-11-30T01:48:14.209Z,17.80
2017-11-30T01:49:17.492Z,17.67
2017-11-30T01:50:19.971Z,17.67
2017-11-30T01:51:22.449Z,16.83
2017-11-30T01:52:24.953Z,17.15
2017-11-30T01:53:27.476Z,17.48
2017-11-30T01:54:29.987Z,17.30
2017-11-30T01:55:32.475Z,17.25
2017-11-30T01:56:34.959Z,17.73
2017-11-30T01:57:37.438Z,16.33
2017-11-30T01:58:39.988Z,16.70
2017-11-30T01:59:43.215Z,17.37
2017-11-30T02:00:48.277Z,17.15
2017-11-30T02:01:50.765Z,16.98
2017-11-30T02:02:53.239Z,16.17
2017-11-30T02:03:56.536Z,15.05
2017-11-30T02:04:59.005Z,16.98
2017-11-30T02:06:01.829Z,16.95
2017-11-30T02:07:04.303Z,17.08
2017-11-30T02:08:06.772Z,16.95
2017-11-30T02:09:09.273Z,18.40
2017-11-30T02:10:11.771Z,17.77
2017-11-30T02:11:14.257Z,16.37
2017-11-30T02:12:17.504Z,16.48
2017-11-30T02:13:19.985Z,17.15
2017-11-30T02:14:22.498Z,16.62
2017-11-30T02:15:24.963Z,17.60
2017-11-30T02:16:27.481Z,17.10
2017-11-30T02:17:29.940Z,17.33
2017-11-30T02:18:33.238Z,17.33
2017-11-30T02:19:35.746Z,17.62
2017-11-30T02:20:38.256Z,16.20
2017-11-30T02:21:40.773Z,17.80
2017-11-30T02:22:44.032Z,17.33
2017-11-30T02:23:46.546Z,18.08
2017-11-30T02:24:49.047Z,17.85
2017-11-30T02:25:51.507Z,17.67
2017-11-30T02:26:53.996Z,17.87
2017-11-30T02:27:56.471Z,16.02
2017-11-30T02:28:58.946Z,18.17
2017-11-30T02:30:02.211Z,17.12
2017-11-30T02:31:04.696Z,17.37
2017-11-30T02:32:08.715Z,16.87
2017-11-30T02:33:11.192Z,17.02
2017-11-30T02:34:13.664Z,17.40
2017-11-30T02:35:16.187Z,17.37
2017-11-30T02:36:18.657Z,17.33
2017-11-30T02:37:21.925Z,17.75
2017-11-30T02:38:25.177Z,16.90
2017-11-30T02:39:28.410Z,17.48
2017-11-30T02:40:31.652Z,16.27
2017-11-30T02:41:34.900Z,17.02
2017-11-30T02:42:38.144Z,16.90
2017-11-30T02:43:41.412Z,16.67
2017-11-30T02:44:43.898Z,17.77
2017-11-30T02:45:46.401Z,16.55
2017-11-30T02:46:49.635Z,17.75
2017-11-30T02:47:52.100Z,16.77
2017-11-30T02:48:54.580Z,16.08
2017-11-30T02:49:57.032Z,17.60
2017-11-30T02:50:59.644Z,16.75
2017-11-30T02:52:02.134Z,17.20
2017-11-30T02:53:04.613Z,17.30
2017-11-30T02:54:07.077Z,17.40
2017-11-30T02:55:09.616Z,16.50
2017-11-30T02:56:12.174Z,17.75
2017-11-30T02:57:14.648Z,15.80
2017-11-30T02:58:17.135Z,17.10
2017-11-30T02:59:20.381Z,17.62
2017-11-30T03:00:22.885Z,17.17
2017-11-30T03:01:25.366Z,16.60
2017-11-30T03:02:27.847Z,17.60
2017-11-30T03:03:30.322Z,19.45
2017-11-30T03:04:32.852Z,17.92
2017-11-30T03:05:35.365Z,17.08
2017-11-30T03:06:37.827Z,16.12
2017-11-30T03:07:40.288Z,18.20
2017-11-30T03:08:42.861Z,18.02
2017-11-30T03:09:45.332Z,17.95
2017-11-30T03:10:48.608Z,17.67
2017-11-30T03:11:51.102Z,18.33
2017-11-30T03:12:53.575Z,17.70
2017-11-30T03:13:56.098Z,18.45
2017-11-30T03:14:58.639Z,17.27
2017-11-30T03:16:01.116Z,17.73
2017-11-30T03:17:04.371Z,17.42
2017-11-30T03:18:06.830Z,18.10
2017-11-30T03:19:09.344Z,19.40
2017-11-30T03:20:11.855Z,18.17
2017-11-30T03:21:14.354Z,17.98
2017-11-30T03:22:17.580Z,17.73
2017-11-30T03:23:20.051Z,18.10
2017-11-30T03:24:22.545Z,18.17
2017-11-30T03:25:25.789Z,17.70
2017-11-30T03:26:28.575Z,19.05
2017-11-30T03:27:31.106Z,18.25
2017-11-30T03:28:33.588Z,18.87
2017-11-30T03:29:36.069Z,17.75
2017-11-30T03:30:38.663Z,17.73
2017-11-30T03:31:41.168Z,17.58
2017-11-30T03:32:43.704Z,18.50
2017-11-30T03:33:46.176Z,20.17
2017-11-30T03:34:48.657Z,19.75
2017-11-30T03:35:51.131Z,18.67
2017-11-30T03:36:54.386Z,17.80
2017-11-30T03:37:56.952Z,19.67
2017-11-30T03:38:59.466Z,18.65
2017-11-30T03:40:02.704Z,17.95
2017-11-30T03:41:05.960Z,17.55
2017-11-30T03:42:08.485Z,17.70
2017-11-30T03:43:11.017Z,17.87
2017-11-30T03:44:13.484Z,18.35
2017-11-30T03:45:16.731Z,19.08
2017-11-30T03:46:20.703Z,17.73
2017-11-30T03:47:24.772Z,17.95
2017-11-30T03:48:28.030Z,18.12
2017-11-30T03:49:31.270Z,18.80
2017-11-30T03:50:34.496Z,19.37
2017-11-30T03:51:37.758Z,18.95
2017-11-30T03:52:40.302Z,19.95
2017-11-30T03:53:42.811Z,18.67
2017-11-30T03:54:45.280Z,18.67
2017-11-30T03:55:47.772Z,19.67
2017-11-30T03:56:50.252Z,17.60
2017-11-30T03:57:52.724Z,18.52
2017-11-30T03:58:55.244Z,18.55
2017-11-30T03:59:57.761Z,18.02
2017-11-30T04:01:00.300Z,18.75
2017-11-30T04:02:02.806Z,18.67
2017-11-30T04:03:06.051Z,17.65
2017-11-30T04:04:09.308Z,19.65
2017-11-30T04:05:11.821Z,18.77
2017-11-30T04:06:15.063Z,19.50
2017-11-30T04:07:17.548Z,18.87
2017-11-30T04:08:20.007Z,18.42
2017-11-30T04:09:23.252Z,18.95
2017-11-30T04:10:26.588Z,17.95
2017-11-30T04:11:29.818Z,18.12
2017-11-30T04:12:32.292Z,20.02
2017-11-30T04:13:34.762Z,18.00
2017-11-30T04:14:37.316Z,16.98
2017-11-30T04:15:40.617Z,19.17
2017-11-30T04:16:43.101Z,18.10
2017-11-30T04:17:45.575Z,18.20
2017-11-30T04:18:48.185Z,17.02
2017-11-30T04:20:58.253Z,18.73
2017-11-30T04:22:00.738Z,18.30
2017-11-30T04:23:03.203Z,17.37
2017-11-30T04:24:05.700Z,17.55
2017-11-30T04:25:08.168Z,18.60
2017-11-30T04:26:10.686Z,18.98
2017-11-30T04:27:13.944Z,19.30
2017-11-30T04:28:17.182Z,18.35
2017-11-30T04:29:19.675Z,18.25
2017-11-30T04:30:22.164Z,19.50
2017-11-30T04:31:24.703Z,18.30
2017-11-30T04:32:27.192Z,19.87
2017-11-30T04:33:29.754Z,18.42
2017-11-30T04:34:32.254Z,19.17
2017-11-30T04:35:35.505Z,20.30
2017-11-30T04:36:38.741Z,18.55
2017-11-30T04:37:41.980Z,17.87
2017-11-30T04:38:45.208Z,18.75
2017-11-30T04:39:48.479Z,18.65
2017-11-30T04:40:50.945Z,19.17
2017-11-30T04:41:53.454Z,18.58
2017-11-30T04:42:55.931Z,19.90
2017-11-30T04:43:58.414Z,19.15
2017-11-30T04:45:00.916Z,18.90
2017-11-30T04:46:03.378Z,20.08
2017-11-30T04:47:05.883Z,18.92
2017-11-30T04:48:08.374Z,19.50
2017-11-30T04:49:11.604Z,19.33
2017-11-30T04:50:14.915Z,19.58
2017-11-30T04:51:17.686Z,19.92
2017-11-30T04:52:20.931Z,19.58
2017-11-30T04:53:24.164Z,18.15
2017-11-30T04:54:27.395Z,20.30
2017-11-30T04:55:29.962Z,20.08
2017-11-30T04:56:32.448Z,20.75
2017-11-30T04:57:34.930Z,20.02
2017-11-30T04:58:37.431Z,20.77
2017-11-30T04:59:39.923Z,20.08
2017-11-30T05:00:43.174Z,19.58
2017-11-30T05:01:45.784Z,18.92
2017-11-30T05:02:49.752Z,19.37
2017-11-30T05:03:52.261Z,21.05
2017-11-30T05:04:54.737Z,20.15
2017-11-30T05:05:57.196Z,19.37
2017-11-30T05:06:59.669Z,20.62
2017-11-30T05:08:02.906Z,20.33
2017-11-30T05:09:06.189Z,21.27
2017-11-30T05:10:08.666Z,21.50
2017-11-30T05:11:11.140Z,20.10
2017-11-30T05:12:13.620Z,20.10
2017-11-30T05:13:16.862Z,20.70
2017-11-30T05:14:20.100Z,19.55
2017-11-30T05:15:22.567Z,20.67
2017-11-30T05:16:25.037Z,21.12
2017-11-30T05:17:28.270Z,20.23
2017-11-30T05:18:30.764Z,19.90
2017-11-30T05:19:33.219Z,20.23
2017-11-30T05:20:35.721Z,20.70
2017-11-30T05:21:38.197Z,21.40
2017-11-30T05:22:41.431Z,18.50
2017-11-30T05:23:43.911Z,19.00
2017-11-30T05:24:46.633Z,20.55
2017-11-30T05:25:49.105Z,19.48
2017-11-30T05:26:51.588Z,19.83
2017-11-30T05:27:54.087Z,19.45
2017-11-30T05:28:56.543Z,19.65
2017-11-30T05:29:59.040Z,19.37
2017-11-30T05:31:02.304Z,20.62
2017-11-30T05:32:04.763Z,19.45
2017-11-30T05:33:07.243Z,20.55
2017-11-30T05:34:09.791Z,19.02
2017-11-30T05:35:12.289Z,19.12
2017-11-30T05:36:14.825Z,21.20
2017-11-30T05:37:17.308Z,20.33
2017-11-30T05:38:21.288Z,20.37
2017-11-30T05:39:23.769Z,20.95
2017-11-30T05:40:26.343Z,20.45
2017-11-30T05:41:29.619Z,20.80
2017-11-30T05:42:32.448Z,21.00
2017-11-30T05:43:34.944Z,20.85
2017-11-30T05:44:37.415Z,20.90
2017-11-30T05:45:39.899Z,19.45
2017-11-30T05:46:42.473Z,20.55
2017-11-30T05:47:44.995Z,20.67
2017-11-30T05:48:47.449Z,22.10
2017-11-30T05:49:50.735Z,20.62
2017-11-30T05:50:53.230Z,20.75
2017-11-30T05:51:56.467Z,21.15
2017-11-30T05:52:59.820Z,21.12
2017-11-30T05:54:03.065Z,20.25
2017-11-30T05:55:05.556Z,20.45
2017-11-30T05:56:09.545Z,20.90
2017-11-30T05:57:12.801Z,21.50
2017-11-30T05:58:15.329Z,22.17
2017-11-30T05:59:17.850Z,21.00
2017-11-30T06:00:21.095Z,20.95
2017-11-30T06:01:23.620Z,21.17
2017-11-30T06:02:26.092Z,22.70
2017-11-30T06:03:28.559Z,21.60
2017-11-30T06:04:31.825Z,22.15
2017-11-30T06:05:34.291Z,22.08
2017-11-30T06:06:38.287Z,21.20
2017-11-30T06:07:41.525Z,20.62
2017-11-30T06:08:44.781Z,21.67
2017-11-30T06:09:47.293Z,21.50
2017-11-30T06:10:50.543Z,21.20
2017-11-30T06:11:53.044Z,21.90
2017-11-30T06:12:55.533Z,21.77
2017-11-30T06:13:58.008Z,22.20
2017-11-30T06:15:01.272Z,21.55
2017-11-30T06:16:03.750Z,21.80
2017-11-30T06:17:06.223Z,22.05
2017-11-30T06:18:08.693Z,22.80
2017-11-30T06:19:11.159Z,21.25
2017-11-30T06:20:13.697Z,21.33
2017-11-30T06:21:16.172Z,21.05
2017-11-30T06:22:20.197Z,21.40
2017-11-30T06:23:22.663Z,22.58
2017-11-30T06:24:25.148Z,23.00
2017-11-30T06:25:27.667Z,23.80
2017-11-30T06:26:30.182Z,23.87
2017-11-30T06:27:32.651Z,23.45
2017-11-30T06:28:35.150Z,24.20
2017-11-30T06:29:37.643Z,23.48
2017-11-30T06:30:40.911Z,23.75
2017-11-30T06:31:43.424Z,23.65
2017-11-30T06:32:45.897Z,23.70
2017-11-30T06:33:48.404Z,23.42
2017-11-30T06:34:50.866Z,23.45
2017-11-30T06:35:53.332Z,23.27
2017-11-30T06:36:55.854Z,24.08
2017-11-30T06:37:58.313Z,23.05
2017-11-30T06:39:00.785Z,22.00
2017-11-30T06:40:04.081Z,23.90
2017-11-30T06:41:06.573Z,23.80
2017-11-30T06:42:09.059Z,24.40
2017-11-30T06:43:12.321Z,23.05
2017-11-30T06:44:15.557Z,23.02
2017-11-30T06:45:18.819Z,23.10
2017-11-30T06:46:21.315Z,22.27
2017-11-30T06:47:24.565Z,23.20
2017-11-30T06:48:27.816Z,23.17
2017-11-30T06:49:31.044Z,22.70
2017-11-30T06:50:34.301Z,23.38
2017-11-30T06:51:37.576Z,24.42
2017-11-30T06:52:40.061Z,23.10
2017-11-30T06:53:43.327Z,23.92
2017-11-30T06:54:45.810Z,24.35
2017-11-30T06:55:48.283Z,23.02
2017-11-30T06:56:50.779Z,22.92
2017-11-30T06:57:54.040Z,22.13
2017-11-30T06:58:56.567Z,22.23
2017-11-30T06:59:59.053Z,22.48
2017-11-30T07:01:01.517Z,22.87
2017-11-30T07:02:04.019Z,22.42
2017-11-30T07:03:07.281Z,20.92
2017-11-30T07:04:09.758Z,22.80
2017-11-30T07:05:12.225Z,22.33
2017-11-30T07:06:15.583Z,21.58
2017-11-30T07:07:18.082Z,20.55
2017-11-30T07:08:21.340Z,23.35
2017-11-30T07:09:23.810Z,21.02
2017-11-30T07:10:26.335Z,19.55
2017-11-30T07:11:28.837Z,22.30
2017-11-30T07:12:31.338Z,21.60
2017-11-30T07:13:34.180Z,22.27
2017-11-30T07:14:36.663Z,21.90
2017-11-30T07:15:39.125Z,20.90
2017-11-30T07:16:41.595Z,22.45
2017-11-30T07:17:44.077Z,20.70
2017-11-30T07:18:47.267Z,21.70
2017-11-30T07:19:49.946Z,21.27
2017-11-30T07:20:53.191Z,21.52
2017-11-30T07:21:56.089Z,22.83
2017-11-30T07:22:58.570Z,21.77
2017-11-30T07:24:01.168Z,20.80
2017-11-30T07:25:04.429Z,22.80
2017-11-30T07:26:07.224Z,22.62
2017-11-30T07:27:10.491Z,21.20
2017-11-30T07:28:12.980Z,22.00
2017-11-30T07:29:15.476Z,21.55
2017-11-30T07:30:18.238Z,20.65
2017-11-30T07:31:20.736Z,21.25
2017-11-30T07:32:23.208Z,22.55
2017-11-30T07:33:26.485Z,22.48
2017-11-30T07:34:28.981Z,22.27
2017-11-30T07:35:32.229Z,21.98
2017-11-30T07:36:34.754Z,21.50
2017-11-30T07:37:38.804Z,23.23
2017-11-30T07:38:42.040Z,22.02
2017-11-30T07:39:45.077Z,23.70
2017-11-30T07:41:55.168Z,23.83
2017-11-30T07:42:57.652Z,24.63
2017-11-30T07:44:00.349Z,24.08
2017-11-30T07:45:03.299Z,23.60
2017-11-30T07:46:05.792Z,23.73
2017-11-30T07:47:08.268Z,23.77
2017-11-30T07:48:10.949Z,23.95
2017-11-30T07:49:14.163Z,23.17
2017-11-30T07:50:17.430Z,23.90
2017-11-30T07:51:19.921Z,24.67
2017-11-30T07:52:22.434Z,24.02
2017-11-30T07:53:24.938Z,24.30
2017-11-30T07:54:27.391Z,25.37
2017-11-30T07:55:29.848Z,24.52
2017-11-30T07:56:32.421Z,25.08
2017-11-30T07:57:34.909Z,23.52
2017-11-30T07:58:37.488Z,22.80
2017-11-30T07:59:40.076Z,23.30
2017-11-30T08:00:42.545Z,23.85
2017-11-30T08:01:45.006Z,22.83
2017-11-30T08:02:47.527Z,26.05
2017-11-30T08:03:50.799Z,24.33
2017-11-30T08:04:53.264Z,24.58
2017-11-30T08:05:55.777Z,25.23
2017-11-30T08:06:58.278Z,23.00
2017-11-30T08:08:00.761Z,24.45
2017-11-30T08:09:04.141Z,25.00
2017-11-30T08:10:06.639Z,24.92
2017-11-30T08:11:09.878Z,25.08
2017-11-30T08:12:13.232Z,24.50
2017-11-30T08:13:15.714Z,26.70
2017-11-30T08:14:18.970Z,25.35
2017-11-30T08:15:22.208Z,24.17
2017-11-30T08:16:25.501Z,23.10
2017-11-30T08:17:27.984Z,23.60
2017-11-30T08:18:30.497Z,22.70
2017-11-30T08:19:32.996Z,23.27
2017-11-30T08:20:36.274Z,23.40
2017-11-30T08:21:38.733Z,22.90
2017-11-30T08:22:41.300Z,23.15
2017-11-30T08:23:43.834Z,22.17
2017-11-30T08:24:46.389Z,22.42
2017-11-30T08:25:49.660Z,23.52
2017-11-30T08:26:52.157Z,23.40
2017-11-30T08:27:55.421Z,23.25
2017-11-30T08:28:57.923Z,22.33
2017-11-30T08:30:01.206Z,21.25
2017-11-30T08:31:03.680Z,21.98
2017-11-30T08:32:06.920Z,21.67
2017-11-30T08:33:09.412Z,21.42
2017-11-30T08:34:11.896Z,20.85
2017-11-30T08:35:15.269Z,21.48
2017-11-30T08:36:17.755Z,19.80
2017-11-30T08:37:20.321Z,20.50
2017-11-30T08:38:22.801Z,20.55
2017-11-30T08:39:25.280Z,21.45
2017-11-30T08:40:27.790Z,20.80
2017-11-30T08:41:30.312Z,21.27
2017-11-30T08:42:34.164Z,21.02
2017-11-30T08:43:36.657Z,20.12
2017-11-30T08:44:39.978Z,21.62
2017-11-30T08:45:42.496Z,22.13
2017-11-30T08:46:44.990Z,21.83
2017-11-30T08:47:47.468Z,22.48
2017-11-30T08:48:49.931Z,21.55
2017-11-30T08:49:52.384Z,20.17
2017-11-30T08:50:54.896Z,21.73
2017-11-30T08:51:57.383Z,23.08
2017-11-30T08:53:00.613Z,21.55
2017-11-30T08:54:03.090Z,21.17
2017-11-30T08:55:05.637Z,21.83
2017-11-30T08:56:08.249Z,20.95
2017-11-30T08:57:10.888Z,20.67
2017-11-30T08:58:13.352Z,21.20
2017-11-30T08:59:15.811Z,21.60
2017-11-30T09:00:18.276Z,21.23
2017-11-30T09:01:20.758Z,21.48
2017-11-30T09:02:23.308Z,21.67
2017-11-30T09:03:25.828Z,21.87
2017-11-30T09:04:28.315Z,22.00
2017-11-30T09:05:31.548Z,20.42
2017-11-30T09:06:34.789Z,22.80
2017-11-30T09:07:38.022Z,23.20
2017-11-30T09:08:40.603Z,20.95
2017-11-30T09:09:43.063Z,21.12
2017-11-30T09:10:45.532Z,21.10
2017-11-30T09:11:48.037Z,23.05
2017-11-30T09:12:51.393Z,22.67
2017-11-30T09:13:53.904Z,22.70
2017-11-30T09:14:56.351Z,20.80
2017-11-30T09:15:58.825Z,20.88
2017-11-30T09:17:02.069Z,21.58
2017-11-30T09:18:04.567Z,21.80
2017-11-30T09:19:07.103Z,22.13
2017-11-30T09:20:09.597Z,21.77
2017-11-30T09:21:12.585Z,22.65
2017-11-30T09:22:15.157Z,24.20
2017-11-30T09:23:19.209Z,21.55
2017-11-30T09:24:21.700Z,22.95
2017-11-30T09:25:24.250Z,21.58
2017-11-30T09:26:26.836Z,24.40
2017-11-30T09:27:29.304Z,23.50
2017-11-30T09:28:32.552Z,23.20
2017-11-30T09:29:35.780Z,23.05
2017-11-30T09:30:39.032Z,23.35
2017-11-30T09:31:42.312Z,23.73
2017-11-30T09:32:44.802Z,22.65
2017-11-30T09:33:48.130Z,25.10
2017-11-30T09:34:52.665Z,24.70
2017-11-30T09:35:55.168Z,23.10
2017-11-30T09:36:57.679Z,24.65
2017-11-30T09:38:00.440Z,24.25
2017-11-30T09:39:02.945Z,24.30
2017-11-30T09:40:05.424Z,24.02
2017-11-30T09:41:07.913Z,24.00
2017-11-30T09:42:10.443Z,23.02
2017-11-30T09:43:12.932Z,23.87
2017-11-30T09:44:16.203Z,23.65
2017-11-30T09:45:18.679Z,23.55
2017-11-30T09:46:21.948Z,25.62
2017-11-30T09:47:24.453Z,22.27
2017-11-30T09:48:26.929Z,23.90
2017-11-30T09:49:29.440Z,23.08
2017-11-30T09:50:31.991Z,24.10
2017-11-30T09:51:34.475Z,23.58
2017-11-30T09:52:37.704Z,23.77
2017-11-30T09:53:41.126Z,23.48
2017-11-30T09:54:43.613Z,23.02
2017-11-30T09:55:46.375Z,24.42
2017-11-30T09:56:48.836Z,22.17
2017-11-30T09:57:52.097Z,22.50
2017-11-30T09:58:54.591Z,23.35
2017-11-30T09:59:57.866Z,22.87
2017-11-30T10:01:00.353Z,23.15
2017-11-30T10:02:02.833Z,22.80
2017-11-30T10:03:05.317Z,22.98
2017-11-30T10:04:08.608Z,22.50
2017-11-30T10:05:11.125Z,23.80
2017-11-30T10:06:13.632Z,21.92
2017-11-30T10:07:16.157Z,23.30
2017-11-30T10:08:18.628Z,23.52
2017-11-30T10:09:21.098Z,22.90
2017-11-30T10:10:24.352Z,23.92
2017-11-30T10:11:26.837Z,23.85
2017-11-30T10:12:29.316Z,23.75
2017-11-30T10:13:31.798Z,24.30
2017-11-30T10:14:34.344Z,23.25
2017-11-30T10:15:36.828Z,24.70
2017-11-30T10:16:39.275Z,24.85
2017-11-30T10:17:42.516Z,24.87
2017-11-30T10:18:45.798Z,24.27
2017-11-30T10:19:48.259Z,24.30
2017-11-30T10:20:50.844Z,23.27
2017-11-30T10:21:53.586Z,23.85
2017-11-30T10:22:56.092Z,23.27
2017-11-30T10:23:58.586Z,25.62
2017-11-30T10:25:01.093Z,24.87
2017-11-30T10:26:03.559Z,24.50
2017-11-30T10:27:06.827Z,23.75
2017-11-30T10:28:09.596Z,22.95
2017-11-30T10:29:12.612Z,24.23
2017-11-30T10:30:15.088Z,25.85
2017-11-30T10:31:18.337Z,22.65
2017-11-30T10:32:21.570Z,24.30
2017-11-30T10:33:24.815Z,22.95
2017-11-30T10:34:27.303Z,23.80
2017-11-30T10:35:29.762Z,23.27
2017-11-30T10:36:33.135Z,23.90
2017-11-30T10:37:35.609Z,25.05
2017-11-30T10:38:38.195Z,23.45
2017-11-30T10:39:40.718Z,23.55
2017-11-30T10:40:43.172Z,24.00
2017-11-30T10:41:45.673Z,23.75
2017-11-30T10:42:48.159Z,23.27
2017-11-30T10:43:51.400Z,23.20
2017-11-30T10:44:54.653Z,24.40
2017-11-30T10:45:58.008Z,25.00
2017-11-30T10:47:00.479Z,23.05
2017-11-30T10:48:02.966Z,23.77
2017-11-30T10:49:05.449Z,24.92
2017-11-30T10:50:07.929Z,22.87
2017-11-30T10:51:10.639Z,23.98
2017-11-30T10:52:13.150Z,24.20
2017-11-30T10:53:16.382Z,23.48
2017-11-30T10:55:29.456Z,23.23
2017-11-30T10:56:31.965Z,23.77
2017-11-30T10:57:34.489Z,24.55
2017-11-30T10:58:36.958Z,25.20
2017-11-30T10:59:39.550Z,24.98
2017-11-30T11:00:42.023Z,24.23
2017-11-30T11:01:44.496Z,25.37
2017-11-30T11:02:46.968Z,24.85
2017-11-30T11:03:49.427Z,23.50
2017-11-30T11:04:52.792Z,24.83
2017-11-30T11:05:55.318Z,25.08
2017-11-30T11:06:57.788Z,25.30
2017-11-30T11:08:00.271Z,23.87
2017-11-30T11:09:02.757Z,24.73
2017-11-30T11:10:05.224Z,24.40
2017-11-30T11:11:07.741Z,24.55
2017-11-30T11:12:10.194Z,23.33
2017-11-30T11:13:12.702Z,24.58
2017-11-30T11:14:15.163Z,25.52
2017-11-30T11:15:17.678Z,24.52
2017-11-30T11:16:20.147Z,25.88
2017-11-30T11:17:23.384Z,25.40
2017-11-30T11:18:26.621Z,23.65
2017-11-30T11:19:29.879Z,24.00
2017-11-30T11:20:33.135Z,24.23
2017-11-30T11:21:35.603Z,24.85
2017-11-30T11:22:38.232Z,23.62
2017-11-30T11:23:41.009Z,24.90
2017-11-30T11:24:43.524Z,24.70
2017-11-30T11:25:46.797Z,25.33
2017-11-30T11:26:49.275Z,23.85
2017-11-30T11:27:51.760Z,24.50
2017-11-30T11:28:54.283Z,25.55
2017-11-30T11:29:56.791Z,25.58
2017-11-30T11:30:59.251Z,26.12
2017-11-30T11:32:02.039Z,25.20
2017-11-30T11:33:04.497Z,26.05
2017-11-30T11:34:06.963Z,25.02
2017-11-30T11:35:09.440Z,26.12
2017-11-30T11:36:11.921Z,24.63
2017-11-30T11:37:15.172Z,24.67
2017-11-30T11:38:19.045Z,24.58
2017-11-30T11:39:21.585Z,25.08
2017-11-30T11:40:24.070Z,24.25
2017-11-30T11:41:27.339Z,24.80
2017-11-30T11:42:30.665Z,23.55
2017-11-30T11:43:33.925Z,25.02
2017-11-30T11:44:36.403Z,24.65
2017-11-30T11:45:38.899Z,25.15
2017-11-30T11:46:41.376Z,23.45
2017-11-30T11:47:44.643Z,23.87
2017-11-30T11:48:47.160Z,24.37
2017-11-30T11:49:49.657Z,22.80
2017-11-30T11:50:52.128Z,23.00
2017-11-30T11:51:54.606Z,23.58
2017-11-30T11:52:57.102Z,21.90
2017-11-30T11:53:59.571Z,24.15
2017-11-30T11:55:02.825Z,23.02
2017-11-30T11:56:06.067Z,23.77
2017-11-30T11:57:09.297Z,22.33
2017-11-30T11:58:12.561Z,22.83
2017-11-30T11:59:15.045Z,22.75
2017-11-30T12:00:17.519Z,21.02
2017-11-30T12:01:20.040Z,20.85
2017-11-30T12:02:22.512Z,22.30
2017-11-30T12:03:24.980Z,21.90
2017-11-30T12:04:27.452Z,21.83
2017-11-30T12:05:29.907Z,21.62
2017-11-30T12:06:33.183Z,21.05
2017-11-30T12:07:35.694Z,20.25
2017-11-30T12:08:39.690Z,19.62
2017-11-30T12:09:42.169Z,18.70
2017-11-30T12:10:45.469Z,19.58
2017-11-30T12:11:47.917Z,18.48
2017-11-30T12:12:50.389Z,17.40
2017-11-30T12:13:52.852Z,17.90
2017-11-30T12:14:55.323Z,17.05
2017-11-30T12:15:57.804Z,17.33
2017-11-30T12:17:00.321Z,17.48
2017-11-30T12:18:02.806Z,17.15
2017-11-30T12:19:05.329Z,16.37
2017-11-30T12:20:07.799Z,17.55
2017-11-30T12:21:10.342Z,18.62
2017-11-30T12:22:12.834Z,17.55
2017-11-30T12:23:16.056Z,18.70
2017-11-30T12:24:18.564Z,19.75
2017-11-30T12:25:21.792Z,20.50
2017-11-30T12:26:25.023Z,21.87
2017-11-30T12:27:27.507Z,21.58
2017-11-30T12:28:30.014Z,21.58
2017-11-30T12:29:33.261Z,20.88
2017-11-30T12:30:35.756Z,21.77
2017-11-30T12:31:38.993Z,20.85
2017-11-30T12:32:42.218Z,20.48
2017-11-30T12:33:44.701Z,21.95
2017-11-30T12:34:47.173Z,20.70
2017-11-30T12:35:49.815Z,22.00
2017-11-30T12:36:52.299Z,21.20
2017-11-30T12:37:54.765Z,20.48
2017-11-30T12:38:57.232Z,19.87
2017-11-30T12:39:59.700Z,21.45
2017-11-30T12:41:02.216Z,18.73
2017-11-30T12:42:04.692Z,21.40
2017-11-30T12:43:07.173Z,19.75
2017-11-30T12:44:09.662Z,20.12
2017-11-30T12:45:12.208Z,20.95
2017-11-30T12:46:14.721Z,20.90
2017-11-30T12:47:17.227Z,19.92
2017-11-30T12:48:20.662Z,20.77
2017-11-30T12:49:23.142Z,21.02
2017-11-30T12:50:25.885Z,20.10
2017-11-30T12:51:29.165Z,19.50
2017-11-30T12:52:31.682Z,19.58
2017-11-30T12:53:34.168Z,18.37
2017-11-30T12:54:36.667Z,19.55
2017-11-30T12:55:39.200Z,19.75
2017-11-30T12:56:41.751Z,20.45
2017-11-30T12:57:44.219Z,17.60
2017-11-30T12:58:46.745Z,18.62
2017-11-30T12:59:49.270Z,18.40
2017-11-30T13:00:51.744Z,18.67
2017-11-30T13:01:54.720Z,18.48
2017-11-30T13:02:57.193Z,17.55
2017-11-30T13:03:59.720Z,16.90
2017-11-30T13:05:02.207Z,17.35
2017-11-30T13:06:04.705Z,16.60
2017-11-30T13:07:07.964Z,15.85
2017-11-30T13:08:12.049Z,16.80
2017-11-30T13:09:14.530Z,15.50
2017-11-30T13:10:17.811Z,15.50
2017-11-30T13:11:20.314Z,15.80
2017-11-30T13:12:23.542Z,14.50
2017-11-30T13:13:26.818Z,15.18
2017-11-30T13:14:29.299Z,15.25
2017-11-30T13:15:31.757Z,13.93
2017-11-30T13:16:34.254Z,14.02
2017-11-30T13:17:37.486Z,13.07
2017-11-30T13:18:39.956Z,14.77
2017-11-30T13:19:42.422Z,13.60
2017-11-30T13:20:45.729Z,13.70
2017-11-30T13:21:48.214Z,12.65
2017-11-30T13:22:52.311Z,14.05
2017-11-30T13:23:54.798Z,13.62
2017-11-30T13:24:58.763Z,12.40
2017-11-30T13:26:02.222Z,12.70
2017-11-30T13:27:05.510Z,12.23
2017-11-30T13:28:08.012Z,12.25
2017-11-30T13:29:11.239Z,12.48
2017-11-30T13:30:14.470Z,13.15
2017-11-30T13:31:17.693Z,12.07
2017-11-30T13:32:20.173Z,11.80